createdAt,value
2023-12-20T00:00:42.940Z,99966.65
2023-12-20T00:03:41.780Z,99964.23
2023-12-20T00:06:14.667Z,99960.97
2023-12-20T00:08:46.370Z,99963.52
2023-12-20T00:11:17.969Z,99959.27
2023-12-20T00:13:51.926Z,99955.56
2023-12-20T00:16:23.998Z,99949.38
2023-12-20T00:18:55.947Z,99944.80
2023-12-20T00:21:28.108Z,99945.10
2023-12-20T00:23:59.848Z,99944.54
2023-12-20T00:26:31.457Z,99943.06
2023-12-20T00:29:03.100Z,99946.74
2023-12-20T00:31:34.829Z,99940.13
2023-12-20T00:34:06.708Z,99936.30
2023-12-20T00:36:38.855Z,99933.08
2023-12-20T00:39:10.534Z,99939.22
2023-12-20T00:41:42.101Z,99934.19
2023-12-20T00:44:14.352Z,99930.59
2023-12-20T00:46:45.939Z,99927.28
2023-12-20T00:49:17.765Z,99930.15
2023-12-20T00:51:51.727Z,99926.23
2023-12-20T00:54:23.512Z,99920.45
2023-12-20T00:56:55.158Z,99916.75
2023-12-20T00:59:26.898Z,99916.84
2023-12-20T01:01:58.586Z,99916.32
2023-12-20T01:04:30.514Z,99910.99
2023-12-20T01:07:02.303Z,99914.70
2023-12-20T01:09:33.940Z,99909.81
2023-12-20T01:12:06.133Z,99907.35
2023-12-20T01:14:37.779Z,99907.93
2023-12-20T01:17:09.411Z,99903.95
2023-12-20T01:19:41.219Z,99905.02
2023-12-20T01:22:13.001Z,99904.95
2023-12-20T01:24:44.783Z,99900.68
2023-12-20T01:27:16.497Z,99897.73
2023-12-20T01:29:48.152Z,99894.28
2023-12-20T01:32:19.722Z,99896.91
2023-12-20T01:34:51.478Z,99892.83
2023-12-20T01:37:25.181Z,99889.17
2023-12-20T01:39:56.980Z,99887.42
2023-12-20T01:42:28.577Z,99880.35
2023-12-20T01:45:00.313Z,99887.87
2023-12-20T01:47:32.373Z,99881.95
2023-12-20T01:50:05.377Z,99878.12
2023-12-20T01:52:38.499Z,99874.63
2023-12-20T01:55:14.818Z,99872.14
2023-12-20T01:57:46.888Z,99870.95
2023-12-20T02:00:19.522Z,99873.98
2023-12-20T02:02:51.139Z,99872.30
2023-12-20T02:05:23.429Z,99864.45
2023-12-20T02:07:55.093Z,99867.80
2023-12-20T02:10:26.866Z,99866.94
2023-12-20T02:12:58.592Z,99862.27
2023-12-20T02:15:30.407Z,99858.51
2023-12-20T02:18:02.611Z,99854.27
2023-12-20T02:20:34.283Z,99852.27
2023-12-20T02:23:06.107Z,99850.02
2023-12-20T02:25:38.932Z,99849.02
2023-12-20T02:28:10.645Z,99844.99
2023-12-20T02:30:42.374Z,99837.66
2023-12-20T02:33:14.545Z,99842.20
2023-12-20T02:35:46.313Z,99838.46
2023-12-20T02:38:18.126Z,99834.36
2023-12-20T02:40:50.318Z,99835.42
2023-12-20T02:43:22.135Z,99836.70
2023-12-20T02:45:53.780Z,99840.34
2023-12-20T02:48:26.206Z,99831.14
2023-12-20T02:50:58.298Z,99831.74
2023-12-20T02:53:29.917Z,99823.13
2023-12-20T02:56:01.623Z,99825.80
2023-12-20T02:58:33.220Z,99821.55
2023-12-20T03:01:05.578Z,99830.22
2023-12-20T03:03:37.471Z,99825.95
2023-12-20T03:06:09.337Z,99820.08
2023-12-20T03:08:42.258Z,99812.77
2023-12-20T03:11:14.150Z,99815.98
2023-12-20T03:13:45.844Z,99825.45
2023-12-20T03:16:18.029Z,99823.33
2023-12-20T03:18:49.786Z,99819.00
2023-12-20T03:21:21.581Z,99814.13
2023-12-20T03:23:53.244Z,99807.39
2023-12-20T03:26:24.852Z,99805.44
2023-12-20T03:28:56.436Z,99810.95
2023-12-20T03:31:28.084Z,99813.19
2023-12-20T03:33:59.736Z,99819.14
2023-12-20T03:36:31.556Z,99812.11
2023-12-20T03:39:03.279Z,99807.38
2023-12-20T03:41:35.247Z,99804.33
2023-12-20T03:44:06.958Z,99802.05
2023-12-20T03:46:38.665Z,99802.49
2023-12-20T03:49:10.298Z,99799.63
2023-12-20T03:51:43.390Z,99796.55
2023-12-20T03:54:15.205Z,99793.38
2023-12-20T03:56:46.863Z,99790.46
2023-12-20T03:59:19.825Z,99798.88
2023-12-20T04:01:51.587Z,99802.48
2023-12-20T04:04:23.276Z,99802.73
2023-12-20T04:06:55.329Z,99799.20
2023-12-20T04:09:27.053Z,99794.38
2023-12-20T04:11:58.728Z,99785.20
2023-12-20T04:14:30.520Z,99779.55
2023-12-20T04:17:02.487Z,99794.96
2023-12-20T04:19:34.251Z,99802.31
2023-12-20T04:22:06.139Z,99795.86
2023-12-20T04:24:37.931Z,99791.83
2023-12-20T04:27:09.607Z,99791.08
2023-12-20T04:29:41.201Z,99793.55
2023-12-20T04:32:13.172Z,99793.31
2023-12-20T04:34:44.797Z,99797.67
2023-12-20T04:37:16.715Z,99787.11
2023-12-20T04:39:48.293Z,99788.95
2023-12-20T04:42:19.959Z,99787.32
2023-12-20T04:44:51.815Z,99785.89
2023-12-20T04:47:23.800Z,99791.05
2023-12-20T04:49:55.553Z,99795.30
2023-12-20T04:52:27.421Z,99792.14
2023-12-20T04:54:59.112Z,99792.56
2023-12-20T04:57:30.777Z,99786.65
2023-12-20T05:00:02.362Z,99790.89
2023-12-20T05:02:34.318Z,99790.77
2023-12-20T05:05:06.224Z,99787.54
2023-12-20T05:07:38.043Z,99790.59
2023-12-20T05:10:11.582Z,99784.27
2023-12-20T05:12:44.167Z,99776.96
2023-12-20T05:15:16.135Z,99776.08
2023-12-20T05:17:47.970Z,99773.89
2023-12-20T05:20:20.076Z,99774.28
2023-12-20T05:22:51.774Z,99774.48
2023-12-20T05:25:23.474Z,99774.13
2023-12-20T05:27:55.389Z,99771.60
2023-12-20T05:30:27.929Z,99776.23
2023-12-20T05:32:59.691Z,99776.30
2023-12-20T05:35:31.511Z,99775.80
2023-12-20T05:38:03.236Z,99772.63
2023-12-20T05:40:34.892Z,99770.86
2023-12-20T05:43:06.973Z,99774.94
2023-12-20T05:45:38.594Z,99779.11
2023-12-20T05:48:11.142Z,99773.51
2023-12-20T05:50:42.999Z,99774.79
2023-12-20T05:53:14.911Z,99769.36
2023-12-20T05:55:46.689Z,99777.63
2023-12-20T05:58:18.449Z,99776.23
2023-12-20T06:00:51.054Z,99777.98
2023-12-20T06:03:23.012Z,99774.64
2023-12-20T06:06:03.382Z,99774.89
2023-12-20T06:08:45.028Z,99766.48
2023-12-20T06:11:16.893Z,99766.72
2023-12-20T06:13:50.265Z,99770.07
2023-12-20T06:16:22.519Z,99767.89
2023-12-20T06:18:54.667Z,99772.70
2023-12-20T06:21:26.325Z,99764.87
2023-12-20T06:23:58.932Z,99774.45
2023-12-20T06:26:30.757Z,99775.92
2023-12-20T06:29:02.556Z,99776.50
2023-12-20T06:31:34.762Z,99775.63
2023-12-20T06:34:06.643Z,99775.96
2023-12-20T06:36:38.596Z,99777.59
2023-12-20T06:39:10.298Z,99777.29
2023-12-20T06:41:43.837Z,99777.21
2023-12-20T06:44:15.552Z,99778.52
2023-12-20T06:46:47.905Z,99777.36
2023-12-20T06:49:20.021Z,99777.84
2023-12-20T06:51:51.706Z,99775.64
2023-12-20T06:54:23.408Z,99776.14
2023-12-20T06:56:55.195Z,99775.50
2023-12-20T06:59:27.224Z,99776.25
2023-12-20T07:01:59.100Z,99778.11
2023-12-20T07:04:31.017Z,99774.60
2023-12-20T07:07:02.862Z,99776.51
2023-12-20T07:09:35.001Z,99776.93
2023-12-20T07:12:07.906Z,99772.33
2023-12-20T07:14:42.079Z,99770.51
2023-12-20T07:17:14.890Z,99774.13
2023-12-20T07:19:46.565Z,99776.34
2023-12-20T07:22:18.222Z,99776.44
2023-12-20T07:24:51.061Z,99774.10
2023-12-20T07:27:22.856Z,99775.36
2023-12-20T07:29:54.787Z,99775.68
2023-12-20T07:32:26.715Z,99781.85
2023-12-20T07:34:59.403Z,99773.09
2023-12-20T07:37:31.243Z,99776.65
2023-12-20T07:40:04.789Z,99776.58
2023-12-20T07:42:36.507Z,99767.77
2023-12-20T07:45:10.443Z,99766.52
2023-12-20T07:47:42.274Z,99778.05
2023-12-20T07:50:14.363Z,99778.77
2023-12-20T07:52:46.566Z,99777.54
2023-12-20T07:55:18.767Z,99775.67
2023-12-20T07:57:50.705Z,99778.17
2023-12-20T08:00:22.846Z,99780.24
2023-12-20T08:02:54.504Z,99776.83
2023-12-20T08:05:26.332Z,99782.68
2023-12-20T08:07:57.884Z,99779.20
2023-12-20T08:10:30.938Z,99782.84
2023-12-20T08:13:02.735Z,99786.51
2023-12-20T08:15:34.856Z,99786.75
2023-12-20T08:18:07.478Z,99780.08
2023-12-20T08:20:41.084Z,99782.25
2023-12-20T08:23:14.708Z,99776.65
2023-12-20T08:25:47.327Z,99783.17
2023-12-20T08:28:19.088Z,99780.61
2023-12-20T08:30:54.996Z,99778.38
2023-12-20T08:33:27.016Z,99775.09
2023-12-20T08:35:59.175Z,99776.38
2023-12-20T08:38:30.871Z,99776.48
2023-12-20T08:41:04.120Z,99784.57
2023-12-20T08:43:36.204Z,99779.89
2023-12-20T08:46:08.128Z,99783.52
2023-12-20T08:48:40.054Z,99779.83
2023-12-20T08:51:12.394Z,99779.85
2023-12-20T08:53:46.415Z,99782.14
2023-12-20T08:56:19.297Z,99781.88
2023-12-20T08:58:51.234Z,99772.33
2023-12-20T09:01:23.193Z,99770.60
2023-12-20T09:03:54.903Z,99770.30
2023-12-20T09:06:26.614Z,99765.27
2023-12-20T09:08:58.183Z,99763.52
2023-12-20T09:11:29.940Z,99758.58
2023-12-20T09:14:02.028Z,99759.81
2023-12-20T09:16:33.708Z,99756.70
2023-12-20T09:19:05.539Z,99752.63
2023-12-20T09:21:37.377Z,99750.13
2023-12-20T09:24:09.986Z,99744.23
2023-12-20T09:26:43.843Z,99739.80
2023-12-20T09:29:16.665Z,99739.36
2023-12-20T09:31:48.786Z,99737.23
2023-12-20T09:34:20.678Z,99734.66
2023-12-20T09:36:52.564Z,99730.20
2023-12-20T09:39:25.593Z,99726.30
2023-12-20T09:42:04.719Z,99724.42
2023-12-20T09:44:37.549Z,99714.54
2023-12-20T09:47:10.399Z,99718.06
2023-12-20T09:49:42.099Z,99717.52
2023-12-20T09:52:15.048Z,99713.45
2023-12-20T09:54:47.766Z,99714.67
2023-12-20T09:57:19.536Z,99714.14
2023-12-20T09:59:51.330Z,99712.73
2023-12-20T10:02:27.539Z,99711.35
2023-12-20T10:04:59.232Z,99706.76
2023-12-20T10:07:31.165Z,99700.85
2023-12-20T10:10:03.452Z,99697.67
2023-12-20T10:12:35.233Z,99698.91
2023-12-20T10:15:08.355Z,99707.94
2023-12-20T10:17:40.125Z,99709.61
2023-12-20T10:20:13.541Z,99707.81
2023-12-20T10:22:45.738Z,99704.69
2023-12-20T10:25:17.593Z,99703.33
2023-12-20T10:27:49.708Z,99706.33
2023-12-20T10:30:21.756Z,99703.45
2023-12-20T10:32:53.709Z,99701.98
2023-12-20T10:35:25.487Z,99693.39
2023-12-20T10:37:59.813Z,99700.31
2023-12-20T10:40:33.108Z,99698.45
2023-12-20T10:43:06.337Z,99692.57
2023-12-20T10:45:38.285Z,99689.83
2023-12-20T10:48:12.019Z,99690.27
2023-12-20T10:50:44.751Z,99690.66
2023-12-20T10:53:16.804Z,99687.08
2023-12-20T10:55:49.628Z,99684.05
2023-12-20T10:58:23.723Z,99679.36
2023-12-20T11:01:02.874Z,99677.09
2023-12-20T11:03:37.256Z,99676.38
2023-12-20T11:06:14.443Z,99670.42
2023-12-20T11:08:52.517Z,99664.07
2023-12-20T11:11:30.451Z,99671.21
2023-12-20T11:14:06.366Z,99661.42
2023-12-20T11:16:48.671Z,99663.95
2023-12-20T11:19:26.285Z,99662.70
2023-12-20T11:21:57.943Z,99656.86
2023-12-20T11:24:30.077Z,99651.64
2023-12-20T11:27:03.378Z,99649.79
2023-12-20T11:29:37.132Z,99646.55
2023-12-20T11:32:32.743Z,99633.11
2023-12-20T11:35:21.373Z,99639.52
2023-12-20T11:37:54.824Z,99629.33
2023-12-20T11:40:27.574Z,99631.84
2023-12-20T11:42:59.425Z,99621.42
2023-12-20T11:45:32.130Z,99622.37
2023-12-20T11:48:05.234Z,99621.86
2023-12-20T11:50:37.257Z,99622.11
2023-12-20T11:53:09.075Z,99620.65
2023-12-20T11:55:40.803Z,99611.97
2023-12-20T11:58:13.205Z,99608.30
2023-12-20T12:00:45.315Z,99607.55
2023-12-20T12:03:19.316Z,99606.86
2023-12-20T12:05:52.413Z,99601.55
2023-12-20T12:08:24.058Z,99598.05
2023-12-20T12:10:55.890Z,99597.48
2023-12-20T12:13:28.490Z,99594.21
2023-12-20T12:16:00.391Z,99592.09
2023-12-20T12:18:32.203Z,99586.70
2023-12-20T12:21:13.169Z,99588.90
2023-12-20T12:23:47.523Z,99594.13
2023-12-20T12:26:19.387Z,99594.33
2023-12-20T12:28:50.991Z,99594.77
2023-12-20T12:31:23.553Z,99590.73
2023-12-20T12:33:55.598Z,99589.23
2023-12-20T12:36:27.602Z,99586.91
2023-12-20T12:39:01.138Z,99582.05
2023-12-20T12:41:34.090Z,99579.58
2023-12-20T12:44:11.988Z,99575.71
2023-12-20T12:46:52.057Z,99569.39
2023-12-20T12:49:23.869Z,99571.36
2023-12-20T12:51:57.471Z,99569.70
2023-12-20T12:54:29.355Z,99567.98
2023-12-20T12:57:01.102Z,99574.04
2023-12-20T12:59:32.820Z,99570.27
2023-12-20T13:02:05.140Z,99573.91
2023-12-20T13:04:37.211Z,99571.63
2023-12-20T13:07:11.992Z,99576.03
2023-12-20T13:09:44.014Z,99570.58
2023-12-20T13:12:16.208Z,99572.09
2023-12-20T13:14:47.849Z,99567.80
2023-12-20T13:17:19.527Z,99570.26
2023-12-20T13:19:51.760Z,99570.35
2023-12-20T13:22:23.750Z,99577.15
2023-12-20T13:24:55.465Z,99578.91
2023-12-20T13:27:27.271Z,99578.88
2023-12-20T13:30:00.397Z,99580.36
2023-12-20T13:32:32.278Z,99564.11
2023-12-20T13:35:05.541Z,99569.73
2023-12-20T13:37:37.907Z,99564.42
2023-12-20T13:40:12.178Z,99572.23
2023-12-20T13:42:44.002Z,99573.14
2023-12-20T13:45:15.646Z,99577.26
2023-12-20T13:47:47.897Z,99576.64
2023-12-20T13:50:19.693Z,99566.99
2023-12-20T13:52:51.352Z,99576.95
2023-12-20T13:55:26.538Z,99575.34
2023-12-20T13:57:59.072Z,99573.55
2023-12-20T14:00:31.098Z,99573.76
2023-12-20T14:03:03.051Z,99574.06
2023-12-20T14:05:34.985Z,99574.86
2023-12-20T14:08:07.762Z,99571.69
2023-12-20T14:10:40.046Z,99565.83
2023-12-20T14:13:11.862Z,99566.77
2023-12-20T14:15:43.484Z,99559.38
2023-12-20T14:18:16.344Z,99554.39
2023-12-20T14:20:48.382Z,99566.98
2023-12-20T14:23:20.057Z,99576.98
2023-12-20T14:25:52.557Z,99579.27
2023-12-20T14:28:24.950Z,99582.02
2023-12-20T14:30:57.663Z,99580.46
2023-12-20T14:33:29.366Z,99574.72
2023-12-20T14:36:01.170Z,99589.04
2023-12-20T14:38:33.038Z,99588.89
2023-12-20T14:41:07.126Z,99588.96
2023-12-20T14:43:38.815Z,99592.17
2023-12-20T14:46:10.530Z,99594.67
2023-12-20T14:48:42.647Z,99592.08
2023-12-20T14:51:14.670Z,99585.35
2023-12-20T14:53:48.523Z,99589.27
2023-12-20T14:56:21.472Z,99588.58
2023-12-20T14:58:53.113Z,99591.29
2023-12-20T15:01:25.068Z,99596.34
2023-12-20T15:03:57.991Z,99595.65
2023-12-20T15:06:29.638Z,99595.98
2023-12-20T15:09:01.384Z,99595.65
2023-12-20T15:11:33.139Z,99591.92
2023-12-20T15:14:04.868Z,99582.66
2023-12-20T15:16:36.565Z,99585.01
2023-12-20T15:19:09.266Z,99581.48
2023-12-20T15:21:46.839Z,99582.08
2023-12-20T15:24:27.308Z,99577.13
2023-12-20T15:26:59.003Z,99576.82
2023-12-20T15:29:32.160Z,99576.67
2023-12-20T15:32:04.906Z,99573.45
2023-12-20T15:34:36.592Z,99568.64
2023-12-20T15:37:08.513Z,99569.35
2023-12-20T15:39:40.463Z,99569.31
2023-12-20T15:42:12.063Z,99566.62
2023-12-20T15:44:43.846Z,99564.61
2023-12-20T15:47:15.623Z,99564.36
2023-12-20T15:49:50.788Z,99565.09
2023-12-20T15:52:22.728Z,99554.76
2023-12-20T15:54:55.040Z,99555.39
2023-12-20T15:57:28.161Z,99555.88
2023-12-20T16:00:03.264Z,99549.14
2023-12-20T16:02:40.979Z,99552.86
2023-12-20T16:05:12.978Z,99550.42
2023-12-20T16:07:45.191Z,99548.64
2023-12-20T16:10:17.284Z,99543.92
2023-12-20T16:12:50.106Z,99528.13
2023-12-20T16:15:22.994Z,99525.74
2023-12-20T16:17:54.699Z,99515.88
2023-12-20T16:20:26.505Z,99526.77
2023-12-20T16:22:58.237Z,99531.45
2023-12-20T16:25:30.097Z,99536.57
2023-12-20T16:28:01.728Z,99533.16
2023-12-20T16:30:33.517Z,99536.15
2023-12-20T16:33:06.887Z,99536.41
2023-12-20T16:35:38.583Z,99533.90
2023-12-20T16:38:10.224Z,99525.70
2023-12-20T16:40:42.037Z,99521.13
2023-12-20T16:43:13.885Z,99514.37
2023-12-20T16:45:46.067Z,99518.29
2023-12-20T16:48:17.839Z,99513.61
2023-12-20T16:50:50.449Z,99521.06
2023-12-20T16:53:22.148Z,99520.52
2023-12-20T16:55:53.802Z,99512.29
2023-12-20T16:58:25.440Z,99509.78
2023-12-20T17:00:57.240Z,99512.70
2023-12-20T17:03:28.954Z,99517.98
2023-12-20T17:06:00.630Z,99520.94
2023-12-20T17:08:33.939Z,99515.11
2023-12-20T17:11:05.818Z,99514.90
2023-12-20T17:13:37.822Z,99512.86
2023-12-20T17:16:10.065Z,99513.88
2023-12-20T17:18:41.686Z,99515.44
2023-12-20T17:21:13.336Z,99510.94
2023-12-20T17:23:45.341Z,99510.75
2023-12-20T17:26:17.130Z,99505.36
2023-12-20T17:28:48.812Z,99497.75
2023-12-20T17:31:20.482Z,99498.98
2023-12-20T17:33:52.405Z,99492.90
2023-12-20T17:36:24.500Z,99484.23
2023-12-20T17:38:56.189Z,99492.63
2023-12-20T17:41:27.881Z,99491.29
2023-12-20T17:43:59.537Z,99482.69
2023-12-20T17:46:32.026Z,99481.86
2023-12-20T17:49:03.872Z,99481.36
2023-12-20T17:51:35.687Z,99479.88
2023-12-20T17:54:07.473Z,99476.59
2023-12-20T17:56:39.215Z,99471.48
2023-12-20T17:59:10.851Z,99480.16
2023-12-20T18:01:42.580Z,99477.34
2023-12-20T18:04:14.406Z,99478.69
2023-12-20T18:06:46.104Z,99472.27
2023-12-20T18:09:17.819Z,99469.15
2023-12-20T18:11:49.459Z,99461.65
2023-12-20T18:14:21.802Z,99461.05
2023-12-20T18:16:53.615Z,99459.27
2023-12-20T18:19:25.454Z,99449.21
2023-12-20T18:21:59.098Z,99452.70
2023-12-20T18:24:30.886Z,99444.59
2023-12-20T18:27:02.558Z,99441.25
2023-12-20T18:29:34.227Z,99433.80
2023-12-20T18:32:06.328Z,99427.89
2023-12-20T18:34:38.029Z,99433.13
2023-12-20T18:37:12.084Z,99434.79
2023-12-20T18:39:43.828Z,99432.91
2023-12-20T18:42:19.418Z,99432.91
2023-12-20T18:44:51.531Z,99432.49
2023-12-20T18:47:23.243Z,99429.05
2023-12-20T18:49:55.218Z,99428.43
2023-12-20T18:52:28.633Z,99424.61
2023-12-20T18:55:00.530Z,99419.86
2023-12-20T18:57:32.315Z,99421.58
2023-12-20T19:00:05.331Z,99416.94
2023-12-20T19:02:37.396Z,99423.56
2023-12-20T19:05:11.146Z,99422.55
2023-12-20T19:07:42.927Z,99421.14
2023-12-20T19:10:15.548Z,99423.21
2023-12-20T19:12:47.274Z,99428.00
2023-12-20T19:15:19.982Z,99434.99
2023-12-20T19:17:51.837Z,99430.66
2023-12-20T19:20:23.613Z,99434.40
2023-12-20T19:22:55.274Z,99431.69
2023-12-20T19:25:27.518Z,99420.56
2023-12-20T19:27:59.288Z,99427.08
2023-12-20T19:30:31.162Z,99427.63
2023-12-20T19:33:02.962Z,99439.76
2023-12-20T19:35:34.630Z,99447.84
2023-12-20T19:38:06.378Z,99458.60
2023-12-20T19:40:38.527Z,99483.00
2023-12-20T19:43:10.279Z,99482.19
2023-12-20T19:45:41.931Z,99499.73
2023-12-20T19:48:13.813Z,99501.96
2023-12-20T19:50:45.541Z,99498.55
2023-12-20T19:53:17.302Z,99502.88
2023-12-20T19:55:49.173Z,99498.94
2023-12-20T19:58:20.883Z,99491.05
2023-12-20T20:00:55.768Z,99490.63
2023-12-20T20:03:28.137Z,99489.79
2023-12-20T20:05:59.994Z,99477.09
2023-12-20T20:08:31.744Z,99478.39
2023-12-20T20:11:03.708Z,99473.33
2023-12-20T20:13:35.460Z,99467.25
2023-12-20T20:16:08.065Z,99469.16
2023-12-20T20:18:40.222Z,99470.72
2023-12-20T20:21:12.601Z,99473.01
2023-12-20T20:23:44.251Z,99471.29
2023-12-20T20:26:15.898Z,99474.81
2023-12-20T20:28:47.719Z,99469.36
2023-12-20T20:31:19.444Z,99467.65
2023-12-20T20:33:51.262Z,99466.60
2023-12-20T20:36:23.007Z,99472.83
2023-12-20T20:38:54.687Z,99468.21
2023-12-20T20:41:26.366Z,99464.58
2023-12-20T20:43:58.027Z,99463.06
2023-12-20T20:46:30.747Z,99465.30
2023-12-20T20:49:02.933Z,99462.73
2023-12-20T20:51:34.757Z,99468.38
2023-12-20T20:54:15.891Z,99478.21
2023-12-20T20:56:50.338Z,99477.38
2023-12-20T20:59:22.371Z,99476.06
2023-12-20T21:01:54.269Z,99489.09
2023-12-20T21:04:26.022Z,99498.13
2023-12-20T21:06:58.484Z,99498.25
2023-12-20T21:09:30.176Z,99497.51
2023-12-20T21:12:01.937Z,99500.19
2023-12-20T21:14:33.695Z,99498.16
2023-12-20T21:17:05.590Z,99494.63
2023-12-20T21:19:37.307Z,99496.98
2023-12-20T21:22:11.635Z,99493.45
2023-12-20T21:24:44.644Z,99487.96
2023-12-20T21:27:17.530Z,99488.35
2023-12-20T21:29:49.211Z,99489.28
2023-12-20T21:32:20.989Z,99488.33
2023-12-20T21:34:53.425Z,99487.16
2023-12-20T21:37:25.237Z,99484.80
2023-12-20T21:39:57.025Z,99487.20
2023-12-20T21:42:31.606Z,99486.19
2023-12-20T21:45:03.572Z,99489.88
2023-12-20T21:47:36.590Z,99490.81
2023-12-20T21:50:10.520Z,99485.17
2023-12-20T21:52:42.605Z,99490.73
2023-12-20T21:55:16.343Z,99496.23
2023-12-20T21:57:51.011Z,99493.04
2023-12-20T22:00:23.767Z,99501.45
2023-12-20T22:02:55.373Z,99506.39
2023-12-20T22:05:27.510Z,99506.17
2023-12-20T22:08:00.608Z,99507.13
2023-12-20T22:10:33.370Z,99503.05
2023-12-20T22:13:05.379Z,99513.25
2023-12-20T22:15:37.650Z,99514.30
2023-12-20T22:18:09.865Z,99515.98
2023-12-20T22:20:43.052Z,99515.35
2023-12-20T22:23:15.449Z,99516.64
2023-12-20T22:25:47.207Z,99523.42
2023-12-20T22:28:19.919Z,99511.65
2023-12-20T22:30:52.041Z,99518.52
2023-12-20T22:33:25.085Z,99506.74
2023-12-20T22:35:56.860Z,99508.83
2023-12-20T22:38:28.687Z,99503.08
2023-12-20T22:41:00.441Z,99509.34
2023-12-20T22:43:32.187Z,99514.94
2023-12-20T22:46:04.800Z,99515.72
2023-12-20T22:48:36.481Z,99509.52
2023-12-20T22:51:09.093Z,99506.55
2023-12-20T22:53:40.664Z,99502.27
2023-12-20T22:56:12.572Z,99509.10
2023-12-20T22:58:44.224Z,99510.34
2023-12-20T23:01:16.005Z,99502.77
2023-12-20T23:03:47.693Z,99512.39
2023-12-20T23:06:19.369Z,99512.16
2023-12-20T23:08:51.105Z,99515.40
2023-12-20T23:11:22.869Z,99514.23
2023-12-20T23:14:00.826Z,99511.64
2023-12-20T23:16:38.794Z,99515.59
2023-12-20T23:19:12.010Z,99512.80
2023-12-20T23:21:43.879Z,99506.83
2023-12-20T23:24:15.598Z,99507.55
2023-12-20T23:26:47.780Z,99499.80
2023-12-20T23:29:19.500Z,99503.36
2023-12-20T23:31:51.188Z,99505.27
2023-12-20T23:34:22.790Z,99502.86
2023-12-20T23:36:54.565Z,99498.23
2023-12-20T23:39:26.203Z,99502.58
2023-12-20T23:41:58.948Z,99497.89
2023-12-20T23:44:30.710Z,99481.40
2023-12-20T23:47:02.308Z,99475.50
2023-12-20T23:49:34.139Z,99479.40
2023-12-20T23:52:06.987Z,99473.80
2023-12-20T23:54:38.622Z,99471.69
2023-12-20T23:57:10.307Z,99468.95
2023-12-20T23:59:43.316Z,99466.92
